Time;durP1;ratioP1;P1;durP2;ratioP2;P2;SDS_P1;SDS_P2;PMS_P1;PMS_P2;Temp;Humidity;BMP_temperature;BMP_pressure;BME280_temperature;BME280_humidity;BME280_pressure;Samples;Min_cycle;Max_cycle;Signal;HPM_P1;HPM_P2
2022/07/04 00:00:07;;;;;;;4.80;2.30;;;18.00;99.90;;;;;;5043507;28;20056;-45
2022/07/04 00:02:33;;;;;;;2.00;1.90;;;17.90;99.90;;;;;;5047375;28;20021;-48
2022/07/04 00:04:58;;;;;;;4.35;2.25;;;17.80;99.90;;;;;;5042818;28;20016;-45
2022/07/04 00:07:24;;;;;;;4.75;2.35;;;17.80;99.90;;;;;;5051561;28;20025;-45
2022/07/04 00:09:49;;;;;;;2.30;2.10;;;17.80;99.90;;;;;;5051241;28;20029;-45
2022/07/04 00:12:15;;;;;;;3.28;2.50;;;17.80;99.90;;;;;;5048565;28;20039;-44
2022/07/04 00:14:40;;;;;;;2.80;2.40;;;17.80;99.90;;;;;;5042272;28;20031;-44
2022/07/04 00:17:06;;;;;;;3.65;2.20;;;17.70;99.90;;;;;;5051196;28;20535;-46
2022/07/04 00:19:32;;;;;;;4.53;2.58;;;17.70;99.90;;;;;;5051134;28;20029;-44
2022/07/04 00:21:57;;;;;;;2.78;2.17;;;17.70;99.90;;;;;;5043036;28;20483;-44
2022/07/04 00:24:23;;;;;;;3.88;2.25;;;17.70;99.90;;;;;;5046209;28;20546;-47
2022/07/04 00:26:48;;;;;;;3.08;2.20;;;17.60;99.90;;;;;;5047843;28;20070;-44
2022/07/04 00:29:14;;;;;;;2.75;2.30;;;17.60;99.90;;;;;;5042903;28;20475;-44
2022/07/04 00:31:40;;;;;;;2.35;2.05;;;17.60;99.90;;;;;;5048700;28;20566;-44
2022/07/04 00:34:06;;;;;;;2.30;2.10;;;17.50;99.90;;;;;;5041864;28;20029;-44
2022/07/04 00:36:31;;;;;;;3.25;2.17;;;17.50;99.90;;;;;;5051031;28;20031;-44
2022/07/04 00:38:57;;;;;;;2.47;2.22;;;17.40;99.90;;;;;;5039519;28;20029;-45
2022/07/04 00:41:23;;;;;;;2.83;2.13;;;17.40;99.90;;;;;;5046976;28;20159;-44
2022/07/04 00:44:07;;;;;;;4.65;2.40;;;17.40;99.90;;;;;;5048977;28;20040;-46
2022/07/04 00:46:32;;;;;;;6.43;2.40;;;17.40;99.90;;;;;;5042649;28;20498;-44
2022/07/04 00:48:58;;;;;;;4.30;2.38;;;17.40;99.90;;;;;;5051104;28;20108;-45
2022/07/04 00:51:25;;;;;;;7.18;2.42;;;17.40;99.90;;;;;;5040610;28;20578;-45
2022/07/04 00:53:53;;;;;;;2.50;2.30;;;17.30;99.90;;;;;;5050114;28;20048;-46
2022/07/04 00:56:19;;;;;;;2.65;2.33;;;17.30;99.90;;;;;;5050244;28;20056;-45
2022/07/04 00:58:45;;;;;;;2.95;2.63;;;17.30;99.90;;;;;;5040675;28;20025;-45
2022/07/04 01:01:10;;;;;;;3.42;2.45;;;17.30;99.90;;;;;;5037850;28;20043;-45
2022/07/04 01:03:36;;;;;;;2.22;2.03;;;17.20;99.90;;;;;;5042019;28;20044;-45
2022/07/04 01:06:02;;;;;;;2.53;2.00;;;17.20;99.90;;;;;;5048258;28;20581;-45
2022/07/04 01:08:28;;;;;;;3.80;2.28;;;17.20;99.90;;;;;;5042133;28;20517;-47
2022/07/04 01:10:53;;;;;;;3.45;2.60;;;17.10;99.90;;;;;;5050131;28;20064;-46
2022/07/04 01:13:23;;;;;;;1.73;1.60;;;17.10;99.90;;;;;;5041466;28;20037;-46
2022/07/04 01:15:50;;;;;;;4.32;1.95;;;17.10;99.90;;;;;;5048876;28;20075;-46
2022/07/04 01:18:16;;;;;;;5.30;2.22;;;17.00;99.90;;;;;;5043902;28;20018;-44
2022/07/04 01:20:42;;;;;;;2.72;1.80;;;17.00;99.90;;;;;;5040031;28;20017;-46
2022/07/04 01:23:08;;;;;;;3.25;1.80;;;17.00;99.90;;;;;;5050060;28;20112;-45
2022/07/04 01:25:34;;;;;;;2.25;1.95;;;16.90;99.90;;;;;;5036997;28;20430;-44
2022/07/04 01:28:00;;;;;;;2.10;1.80;;;17.00;99.90;;;;;;5049893;28;20544;-44
2022/07/04 01:30:26;;;;;;;3.30;2.38;;;16.90;99.90;;;;;;5041673;28;20029;-46
2022/07/04 01:32:53;;;;;;;3.25;2.42;;;16.90;99.90;;;;;;5039823;28;20029;-45
2022/07/04 01:35:19;;;;;;;4.97;1.85;;;16.80;99.90;;;;;;5044595;28;20474;-44
2022/07/04 01:37:44;;;;;;;6.03;2.00;;;16.70;99.90;;;;;;5041169;28;20045;-45
2022/07/04 01:40:12;;;;;;;5.35;1.98;;;16.70;99.90;;;;;;5045258;28;20064;-45
2022/07/04 01:42:38;;;;;;;3.10;2.00;;;16.70;99.90;;;;;;5039057;28;20013;-45
2022/07/04 01:45:04;;;;;;;2.80;1.92;;;16.60;99.90;;;;;;5049043;28;20386;-45
2022/07/04 01:47:29;;;;;;;6.53;2.50;;;16.60;99.90;;;;;;5047936;28;20115;-45
2022/07/04 01:49:55;;;;;;;2.30;1.90;;;16.50;99.90;;;;;;5041423;28;20112;-45
2022/07/04 01:52:20;;;;;;;3.53;2.28;;;16.50;99.90;;;;;;5041550;28;20033;-46
2022/07/04 01:54:46;;;;;;;2.10;1.70;;;16.50;99.90;;;;;;5039387;28;20130;-45
2022/07/04 01:57:12;;;;;;;2.60;2.10;;;16.40;99.90;;;;;;5044949;28;20017;-45
2022/07/04 02:02:23;;;;;;;4.20;2.65;;;16.30;99.90;;;;;;5021863;28;20039;-45
2022/07/04 02:04:49;;;;;;;3.28;2.08;;;16.30;99.90;;;;;;5038978;28;20402;-44
2022/07/04 02:07:14;;;;;;;3.42;1.67;;;16.30;99.90;;;;;;5037149;28;20018;-45
2022/07/04 02:09:40;;;;;;;2.50;1.83;;;16.30;99.90;;;;;;5047577;28;20032;-44
2022/07/04 02:14:50;;;;;;;3.10;1.88;;;16.20;99.90;;;;;;5039842;28;20059;-45
2022/07/04 02:17:15;;;;;;;2.58;2.10;;;16.20;99.90;;;;;;5044948;28;20267;-46
2022/07/04 02:19:41;;;;;;;2.20;1.80;;;16.20;99.90;;;;;;5038876;28;20463;-44
2022/07/04 02:22:06;;;;;;;1.98;1.77;;;16.20;99.90;;;;;;5048945;28;20021;-43
2022/07/04 02:24:32;;;;;;;3.90;1.92;;;16.20;99.90;;;;;;5045702;28;20024;-45
2022/07/04 02:26:57;;;;;;;1.98;1.77;;;16.10;99.90;;;;;;5041455;28;20047;-45
2022/07/04 02:29:23;;;;;;;3.88;2.17;;;16.10;99.90;;;;;;5048948;28;20096;-45
2022/07/04 02:31:48;;;;;;;2.53;1.90;;;16.00;99.90;;;;;;5037111;28;20631;-46
2022/07/04 02:34:14;;;;;;;1.70;1.58;;;15.90;99.90;;;;;;5042677;28;20025;-45
2022/07/04 02:36:39;;;;;;;2.55;1.67;;;15.90;99.90;;;;;;5039577;28;20021;-44
2022/07/04 02:39:05;;;;;;;5.80;2.08;;;15.90;99.90;;;;;;5042203;28;20021;-44
2022/07/04 02:41:32;;;;;;;3.65;2.10;;;15.90;99.90;;;;;;5039471;28;20017;-48
2022/07/04 02:43:58;;;;;;;2.72;2.05;;;15.90;99.90;;;;;;5036000;28;20105;-45
2022/07/04 02:46:24;;;;;;;3.53;1.73;;;15.90;99.90;;;;;;5028329;28;20026;-44
2022/07/04 02:48:49;;;;;;;3.03;1.65;;;15.90;99.90;;;;;;5035967;28;20035;-45
2022/07/04 02:51:15;;;;;;;2.28;2.00;;;15.90;99.90;;;;;;5041930;28;20371;-45
2022/07/04 02:53:40;;;;;;;3.15;1.80;;;15.80;99.90;;;;;;5041655;28;20475;-45
2022/07/04 02:56:06;;;;;;;4.53;1.55;;;15.80;99.90;;;;;;5017716;28;20080;-45
2022/07/04 02:58:32;;;;;;;6.22;1.92;;;15.70;99.90;;;;;;5025478;28;20160;-45
2022/07/04 03:00:58;;;;;;;4.60;1.90;;;15.80;99.90;;;;;;5043697;28;20025;-45
2022/07/04 03:03:24;;;;;;;2.63;1.85;;;15.70;99.90;;;;;;5045554;28;20024;-45
2022/07/04 03:05:49;;;;;;;8.52;2.40;;;15.70;99.90;;;;;;5039652;28;20025;-44
2022/07/04 03:08:15;;;;;;;3.65;1.80;;;15.60;99.90;;;;;;5044884;28;20060;-46
2022/07/04 03:10:40;;;;;;;3.25;1.80;;;15.50;99.90;;;;;;5033124;28;20037;-47
2022/07/04 03:13:06;;;;;;;2.33;1.95;;;15.60;99.90;;;;;;5048428;28;20090;-45
2022/07/04 03:15:31;;;;;;;5.22;2.50;;;15.50;99.90;;;;;;5038505;28;20087;-46
2022/07/04 03:17:57;;;;;;;2.55;2.13;;;15.50;99.90;;;;;;5039621;28;20032;-45
2022/07/04 03:20:22;;;;;;;5.20;2.60;;;15.50;99.90;;;;;;5048366;28;20021;-46
2022/07/04 03:22:48;;;;;;;4.18;2.10;;;15.50;99.90;;;;;;5038081;28;20025;-44
2022/07/04 03:25:14;;;;;;;5.40;2.75;;;15.50;99.90;;;;;;5042384;28;20033;-44
2022/07/04 03:27:39;;;;;;;2.83;2.10;;;15.50;99.90;;;;;;5048410;28;20136;-45
2022/07/04 03:30:05;;;;;;;4.95;2.70;;;15.50;99.90;;;;;;5045771;28;20108;-45
2022/07/04 03:32:31;;;;;;;3.38;2.03;;;15.40;99.90;;;;;;5036524;28;20489;-44
2022/07/04 03:34:56;;;;;;;4.18;2.50;;;15.40;99.90;;;;;;5046200;28;20037;-46
2022/07/04 03:37:22;;;;;;;3.80;2.08;;;15.40;99.90;;;;;;5040769;28;20018;-45
2022/07/04 03:39:47;;;;;;;3.35;2.08;;;15.30;99.90;;;;;;5038995;28;20064;-45
2022/07/04 03:42:13;;;;;;;4.85;2.30;;;15.30;99.90;;;;;;5042298;28;20033;-46
2022/07/04 03:44:38;;;;;;;4.20;2.42;;;15.30;99.90;;;;;;5036830;28;20052;-44
2022/07/04 03:47:04;;;;;;;4.03;1.95;;;15.30;99.90;;;;;;5048084;28;20467;-44
2022/07/04 03:49:29;;;;;;;4.30;2.70;;;15.30;99.90;;;;;;5048112;28;20024;-45
2022/07/04 03:51:55;;;;;;;5.15;2.90;;;15.30;99.90;;;;;;5037384;28;20025;-46
2022/07/04 03:54:20;;;;;;;2.53;2.30;;;15.30;99.90;;;;;;5042872;28;20466;-44
2022/07/04 03:56:46;;;;;;;2.65;2.30;;;15.30;99.90;;;;;;5038378;28;20029;-44
2022/07/04 03:59:11;;;;;;;3.45;2.47;;;15.20;99.90;;;;;;5040731;28;20013;-44
2022/07/04 04:01:37;;;;;;;2.92;2.47;;;15.20;99.90;;;;;;5044050;28;20059;-44
2022/07/04 04:06:46;;;;;;;4.30;2.45;;;15.20;99.90;;;;;;5046230;28;20056;-45
2022/07/04 04:09:16;;;;;;;5.47;2.75;;;15.30;99.90;;;;;;5043339;28;20446;-45
2022/07/04 04:11:42;;;;;;;4.78;2.42;;;15.30;99.90;;;;;;5051538;28;20478;-46
2022/07/04 04:14:08;;;;;;;4.05;2.30;;;15.30;99.90;;;;;;5039929;28;20152;-45
2022/07/04 04:16:34;;;;;;;7.00;3.22;;;15.30;99.90;;;;;;5048487;28;20565;-45
2022/07/04 04:18:59;;;;;;;6.32;3.10;;;15.40;99.90;;;;;;5042580;28;20021;-46
2022/07/04 04:21:25;;;;;;;4.10;2.75;;;15.40;99.90;;;;;;5047149;28;20334;-45
2022/07/04 04:23:51;;;;;;;4.10;2.45;;;15.40;99.90;;;;;;5044580;28;20048;-45
2022/07/04 04:26:17;;;;;;;5.38;2.60;;;15.50;99.90;;;;;;5042257;28;20021;-46
2022/07/04 04:28:43;;;;;;;3.13;2.30;;;15.50;99.90;;;;;;5049333;28;20045;-45
2022/07/04 04:31:08;;;;;;;5.10;2.55;;;15.50;99.90;;;;;;5042512;28;20036;-46
2022/07/04 04:33:35;;;;;;;3.22;2.25;;;15.50;99.90;;;;;;5050592;28;20021;-45
2022/07/04 04:36:00;;;;;;;5.80;2.58;;;15.50;99.90;;;;;;5040171;28;20112;-46
2022/07/04 04:38:26;;;;;;;3.95;2.22;;;15.50;99.90;;;;;;5047490;28;20124;-45
2022/07/04 04:40:51;;;;;;;4.28;2.40;;;15.50;99.90;;;;;;5050806;28;20052;-46
2022/07/04 04:43:17;;;;;;;6.10;3.03;;;15.50;99.90;;;;;;5039425;28;20292;-45
2022/07/04 04:45:42;;;;;;;4.25;2.45;;;15.50;99.90;;;;;;5048802;28;20489;-46
2022/07/04 04:48:08;;;;;;;5.38;2.90;;;15.50;99.90;;;;;;5042930;28;20024;-44
2022/07/04 04:50:34;;;;;;;6.22;2.97;;;15.60;99.90;;;;;;5042546;28;20025;-44
2022/07/04 04:53:00;;;;;;;7.70;3.03;;;15.50;99.90;;;;;;5045864;28;20013;-45
2022/07/04 04:55:26;;;;;;;3.88;2.92;;;15.60;99.90;;;;;;5041827;28;20078;-44
2022/07/04 04:57:51;;;;;;;5.82;2.70;;;15.50;99.90;;;;;;5049199;28;20120;-44
2022/07/04 05:00:17;;;;;;;4.43;2.90;;;15.60;99.90;;;;;;5042417;28;20180;-44
2022/07/04 05:02:43;;;;;;;3.33;2.85;;;15.60;99.90;;;;;;5050798;28;20025;-44
2022/07/04 05:05:08;;;;;;;5.25;2.95;;;15.60;99.90;;;;;;5044383;28;20017;-44
2022/07/04 05:07:34;;;;;;;3.35;2.35;;;15.70;99.90;;;;;;5042364;28;20454;-44
2022/07/04 05:09:59;;;;;;;4.30;2.88;;;15.70;99.90;;;;;;5024174;28;20053;-44
2022/07/04 05:12:25;;;;;;;6.43;3.30;;;15.70;99.90;;;;;;5036285;28;20478;-44
2022/07/04 05:14:52;;;;;;;4.25;2.45;;;15.80;99.90;;;;;;5045918;28;20029;-44
2022/07/04 05:17:17;;;;;;;5.35;3.10;;;15.80;99.90;;;;;;5034505;28;20034;-44
2022/07/04 05:19:43;;;;;;;8.82;4.05;;;15.80;99.90;;;;;;5009852;28;20029;-45
2022/07/04 05:22:10;;;;;;;5.30;3.25;;;15.80;99.90;;;;;;5035065;28;20501;-45
2022/07/04 05:24:39;;;;;;;7.30;3.08;;;15.80;99.90;;;;;;5046259;28;20021;-45
2022/07/04 05:27:05;;;;;;;4.57;3.03;;;15.90;99.90;;;;;;5042429;28;20036;-46
2022/07/04 05:29:31;;;;;;;7.10;3.33;;;15.90;99.90;;;;;;5036221;28;20616;-45
2022/07/04 05:31:57;;;;;;;7.07;3.60;;;16.00;99.90;;;;;;5051078;28;20052;-45
2022/07/04 05:34:22;;;;;;;5.28;3.42;;;16.00;99.90;;;;;;5042532;28;20022;-45
2022/07/04 05:36:48;;;;;;;6.13;3.38;;;16.10;99.90;;;;;;5041529;28;20163;-45
2022/07/04 05:39:13;;;;;;;6.72;3.38;;;16.10;99.90;;;;;;5049905;28;20032;-45
2022/07/04 05:41:39;;;;;;;7.38;3.67;;;16.10;99.90;;;;;;5039029;28;20033;-44
2022/07/04 05:44:04;;;;;;;7.53;3.47;;;16.20;99.90;;;;;;5050084;28;20025;-50
2022/07/04 05:46:30;;;;;;;8.55;3.75;;;16.30;99.90;;;;;;5026201;28;20021;-44
2022/07/04 05:48:56;;;;;;;9.60;3.78;;;16.30;99.90;;;;;;5039927;28;20200;-44
2022/07/04 05:51:21;;;;;;;5.18;3.00;;;16.40;99.90;;;;;;5046233;28;20021;-44
2022/07/04 05:53:47;;;;;;;6.32;3.10;;;16.40;99.90;;;;;;5038743;28;20041;-45
2022/07/04 05:56:12;;;;;;;7.72;3.33;;;16.50;99.90;;;;;;5031749;28;20029;-47
2022/07/04 05:58:38;;;;;;;4.40;3.50;;;16.60;99.90;;;;;;5031260;28;20106;-45
2022/07/04 06:01:04;;;;;;;5.90;2.88;;;16.60;99.90;;;;;;5042163;28;20064;-44
2022/07/04 06:03:29;;;;;;;6.35;3.15;;;16.70;99.90;;;;;;5048637;28;20566;-45
2022/07/04 06:05:55;;;;;;;9.38;3.20;;;16.70;99.90;;;;;;5033060;28;20616;-45
2022/07/04 06:08:21;;;;;;;5.80;3.15;;;16.80;99.90;;;;;;5050010;28;20028;-45
2022/07/04 06:10:47;;;;;;;4.03;2.22;;;16.80;99.90;;;;;;5042134;28;20105;-44
2022/07/04 06:13:13;;;;;;;4.55;2.22;;;16.90;99.90;;;;;;5042323;28;20059;-46
2022/07/04 06:15:39;;;;;;;3.08;2.10;;;16.90;99.90;;;;;;5044209;28;20030;-45
2022/07/04 06:18:04;;;;;;;4.90;1.90;;;16.90;99.90;;;;;;5033531;28;20013;-45
2022/07/04 06:20:30;;;;;;;3.75;1.92;;;17.00;99.90;;;;;;5037318;28;20026;-45
2022/07/04 06:22:56;;;;;;;5.13;1.60;;;17.10;99.90;;;;;;5033131;28;20026;-45
2022/07/04 06:25:22;;;;;;;5.18;1.92;;;17.10;99.90;;;;;;5034676;28;20024;-45
2022/07/04 06:27:49;;;;;;;4.65;1.80;;;17.10;99.90;;;;;;5030500;28;20124;-45
2022/07/04 06:30:16;;;;;;;3.72;1.40;;;17.10;99.90;;;;;;5030138;28;20456;-44
2022/07/04 06:32:50;;;;;;;5.15;1.95;;;17.10;99.90;;;;;;5035272;28;20056;-45
2022/07/04 06:38:09;;;;;;;4.47;1.70;;;17.20;99.90;;;;;;5039740;28;20521;-45
2022/07/04 06:40:36;;;;;;;2.97;1.33;;;17.40;99.90;;;;;;5046807;28;20025;-45
2022/07/04 06:43:03;;;;;;;4.43;1.77;;;17.40;99.90;;;;;;5037913;28;20017;-46
2022/07/04 06:45:29;;;;;;;4.35;1.48;;;17.50;99.90;;;;;;5046279;28;20028;-45
2022/07/04 06:47:54;;;;;;;4.45;2.05;;;17.60;99.90;;;;;;5036103;28;20370;-47
2022/07/04 06:50:20;;;;;;;5.85;1.77;;;17.60;99.90;;;;;;5043102;28;20466;-44
2022/07/04 06:52:45;;;;;;;4.40;1.63;;;17.70;99.90;;;;;;5026586;28;20396;-44
2022/07/04 06:55:11;;;;;;;3.67;1.33;;;17.70;99.90;;;;;;5032827;28;20044;-44
2022/07/04 06:57:37;;;;;;;3.63;1.60;;;17.80;99.90;;;;;;5027178;28;20108;-44
2022/07/04 07:00:05;;;;;;;3.95;1.60;;;17.90;99.90;;;;;;5025597;28;20017;-45
2022/07/04 07:02:31;;;;;;;2.15;1.30;;;17.90;99.90;;;;;;5022674;28;20013;-45
2022/07/04 07:04:57;;;;;;;3.60;1.70;;;18.00;99.90;;;;;;5020452;28;20670;-45
2022/07/04 07:07:24;;;;;;;3.50;1.23;;;18.10;99.90;;;;;;5027112;28;20049;-45
2022/07/04 07:09:50;;;;;;;2.05;1.30;;;18.10;99.90;;;;;;5029375;28;20091;-45
2022/07/04 07:12:16;;;;;;;6.88;1.17;;;18.20;99.90;;;;;;5019756;28;20108;-48
2022/07/04 07:14:41;;;;;;;4.22;1.33;;;18.20;99.90;;;;;;5026078;28;20113;-45
2022/07/04 07:17:07;;;;;;;4.30;1.33;;;18.20;99.70;;;;;;5029839;28;20065;-45
2022/07/04 07:19:33;;;;;;;4.72;1.48;;;18.40;99.60;;;;;;5028857;28;20068;-46
2022/07/04 07:21:59;;;;;;;1.73;1.23;;;18.40;99.10;;;;;;5024252;28;20068;-44
2022/07/04 07:24:25;;;;;;;3.97;1.40;;;18.40;98.70;;;;;;5026104;28;20048;-45
2022/07/04 07:26:51;;;;;;;5.00;1.60;;;18.50;98.60;;;;;;5019878;28;20026;-45
2022/07/04 07:29:17;;;;;;;4.15;1.20;;;18.60;99.40;;;;;;5018684;28;20421;-44
2022/07/04 07:31:42;;;;;;;3.58;1.33;;;18.70;99.00;;;;;;5020449;28;20600;-45
2022/07/04 07:34:08;;;;;;;2.85;1.20;;;18.80;98.70;;;;;;5026769;28;20040;-46
2022/07/04 07:36:33;;;;;;;3.03;1.55;;;19.00;98.90;;;;;;5031255;28;20026;-45
2022/07/04 07:39:00;;;;;;;1.95;1.50;;;19.10;98.80;;;;;;5032116;28;20025;-47
2022/07/04 07:41:26;;;;;;;4.38;1.63;;;19.20;98.50;;;;;;5047885;28;20025;-46
2022/07/04 07:43:51;;;;;;;3.50;1.45;;;19.50;98.30;;;;;;5040154;28;20029;-46
2022/07/04 07:46:16;;;;;;;6.40;1.52;;;19.50;97.70;;;;;;5046206;28;20032;-45
2022/07/04 07:48:42;;;;;;;3.00;1.50;;;19.70;96.50;;;;;;5041341;28;20109;-45
2022/07/04 07:51:10;;;;;;;1.80;1.33;;;19.90;96.10;;;;;;5031213;28;20445;-45
2022/07/04 07:53:35;;;;;;;3.28;1.40;;;19.90;96.10;;;;;;5039148;28;20372;-47
2022/07/04 07:56:01;;;;;;;2.33;1.48;;;20.00;96.00;;;;;;5051006;28;20112;-46
2022/07/04 07:58:27;;;;;;;1.83;1.10;;;20.10;95.60;;;;;;5048824;28;20025;-46
2022/07/04 08:00:54;;;;;;;2.20;1.40;;;20.30;96.00;;;;;;5035225;28;20029;-47
2022/07/04 08:06:04;;;;;;;3.05;1.65;;;20.40;94.70;;;;;;5037262;28;20083;-46
2022/07/04 08:08:29;;;;;;;3.47;1.52;;;20.50;95.10;;;;;;5036472;28;20021;-45
2022/07/04 08:10:55;;;;;;;3.58;1.65;;;20.50;95.00;;;;;;5037650;28;20164;-45
2022/07/04 08:13:20;;;;;;;2.75;1.20;;;20.50;94.80;;;;;;5042552;28;20148;-46
2022/07/04 08:15:46;;;;;;;2.55;1.17;;;21.00;94.40;;;;;;5050863;28;20025;-46
2022/07/04 08:18:12;;;;;;;1.15;1.02;;;21.50;93.20;;;;;;5035690;28;20022;-44
2022/07/04 08:20:37;;;;;;;4.82;1.70;;;22.70;91.90;;;;;;5049230;28;20029;-44
2022/07/04 08:23:03;;;;;;;5.05;1.23;;;23.10;90.40;;;;;;5046063;28;20387;-45
2022/07/04 08:25:28;;;;;;;5.10;1.20;;;23.70;86.80;;;;;;5039132;28;20359;-44
2022/07/04 08:27:54;;;;;;;2.92;1.08;;;24.50;85.90;;;;;;5042356;28;20032;-45
2022/07/04 08:30:20;;;;;;;3.08;1.38;;;25.10;79.20;;;;;;5034751;28;20071;-45
2022/07/04 08:32:46;;;;;;;4.70;1.42;;;24.90;78.30;;;;;;5038640;28;20349;-45
2022/07/04 08:35:11;;;;;;;3.00;1.20;;;25.10;75.70;;;;;;5033877;28;20313;-44
2022/07/04 08:37:37;;;;;;;2.30;1.23;;;24.90;77.10;;;;;;5032971;28;20034;-46
2022/07/04 08:40:06;;;;;;;3.92;1.50;;;24.80;75.60;;;;;;5011274;28;20018;-46
2022/07/04 08:42:36;;;;;;;3.27;1.17;;;25.10;72.50;;;;;;5027822;28;20513;-47
2022/07/04 08:45:02;;;;;;;3.60;1.10;;;24.50;74.60;;;;;;5037119;28;20347;-47
2022/07/04 08:47:31;;;;;;;4.30;1.15;;;24.30;76.10;;;;;;5036190;28;20506;-44
2022/07/04 08:50:02;;;;;;;2.47;0.88;;;25.10;74.40;;;;;;5038430;28;20158;-45
2022/07/04 08:52:55;;;;;;;2.28;1.05;;;26.00;70.50;;;;;;5029624;28;20037;-45
2022/07/04 09:03:55;;;;;;;2.67;0.93;;;26.00;68.70;;;;;;5020869;28;20436;-45
2022/07/04 09:06:22;;;;;;;2.30;1.20;;;27.30;68.60;;;;;;5027832;28;20028;-45
2022/07/04 09:08:48;;;;;;;3.78;1.00;;;28.10;64.10;;;;;;5029210;28;20672;-45
2022/07/04 09:11:13;;;;;;;4.35;1.08;;;29.60;62.10;;;;;;5021625;28;20051;-46
2022/07/04 09:13:39;;;;;;;3.70;1.38;;;30.40;59.50;;;;;;5025783;28;20069;-47
2022/07/04 09:16:05;;;;;;;2.17;1.08;;;31.40;55.70;;;;;;5021090;28;20048;-47
2022/07/04 09:18:33;;;;;;;0.88;0.70;;;31.90;54.30;;;;;;5025674;28;20033;-47
2022/07/04 09:21:01;;;;;;;5.97;1.00;;;32.10;52.70;;;;;;5029774;28;20022;-45
2022/07/04 09:23:31;;;;;;;1.02;0.70;;;32.30;53.10;;;;;;5026468;28;20026;-46
2022/07/04 09:26:16;;;;;;;1.30;1.00;;;30.70;53.30;;;;;;5025274;28;20049;-45
2022/07/04 09:28:44;;;;;;;2.25;0.70;;;29.80;55.20;;;;;;5025362;28;20038;-46
2022/07/04 09:31:27;;;;;;;2.08;0.90;;;30.40;54.90;;;;;;5036344;28;20471;-46
2022/07/04 09:33:59;;;;;;;2.35;1.00;;;31.20;53.50;;;;;;5036358;28;20094;-46
2022/07/04 09:36:27;;;;;;;2.35;1.00;;;31.40;52.60;;;;;;5025647;28;20403;-46
2022/07/04 09:39:14;;;;;;;1.23;0.93;;;31.30;52.60;;;;;;5021045;28;20060;-45
2022/07/04 09:42:02;;;;;;;3.38;0.95;;;30.30;54.40;;;;;;5032512;28;20025;-46
2022/07/04 09:44:42;;;;;;;3.72;0.90;;;28.90;55.30;;;;;;5019292;28;20029;-45
2022/07/04 09:47:27;;;;;;;1.40;1.15;;;28.20;55.50;;;;;;5032957;28;20037;-45
2022/07/04 09:50:13;;;;;;;2.35;0.85;;;29.10;54.80;;;;;;5036352;28;20020;-46
2022/07/04 09:53:00;;;;;;;1.60;0.93;;;30.20;52.80;;;;;;5026777;28;20109;-48
2022/07/04 09:55:33;;;;;;;2.72;1.00;;;31.40;49.60;;;;;;5029820;28;20034;-45
2022/07/04 09:58:03;;;;;;;2.13;0.77;;;31.60;50.00;;;;;;5016750;28;20062;-46
2022/07/04 10:00:35;;;;;;;2.70;0.85;;;31.80;48.90;;;;;;5031800;28;20014;-45
2022/07/04 10:03:20;;;;;;;1.77;0.95;;;32.50;49.60;;;;;;5023987;28;20379;-46
2022/07/04 10:06:00;;;;;;;3.00;0.80;;;32.70;48.10;;;;;;5021916;28;20033;-46
2022/07/04 10:08:26;;;;;;;1.48;0.70;;;33.30;47.30;;;;;;5024234;28;20026;-46
2022/07/04 10:10:56;;;;;;;2.50;0.85;;;34.30;45.90;;;;;;5031051;28;20033;-46
2022/07/04 10:13:22;;;;;;;1.45;0.82;;;34.80;45.90;;;;;;5028646;28;20116;-47
2022/07/04 10:15:48;;;;;;;1.52;0.90;;;34.50;44.30;;;;;;5023591;28;20124;-47
2022/07/04 10:18:16;;;;;;;0.85;0.68;;;35.20;43.80;;;;;;5031849;28;20040;-47
2022/07/04 10:20:42;;;;;;;2.33;0.80;;;35.10;43.40;;;;;;5028969;28;20456;-47
2022/07/04 10:23:08;;;;;;;1.85;0.82;;;34.10;44.80;;;;;;5031912;28;20270;-46
2022/07/04 10:25:34;;;;;;;3.72;0.77;;;33.20;45.60;;;;;;5019726;28;20096;-45
2022/07/04 10:28:00;;;;;;;4.50;0.77;;;32.10;47.70;;;;;;5032578;28;20182;-45
2022/07/04 10:30:29;;;;;;;3.47;1.42;;;31.90;48.30;;;;;;5031780;28;20035;-45
2022/07/04 10:32:58;;;;;;;2.42;1.00;;;31.90;48.10;;;;;;5025806;28;20484;-45
2022/07/04 10:35:49;;;;;;;3.90;0.80;;;31.80;47.70;;;;;;5028772;28;20041;-45
2022/07/04 10:38:16;;;;;;;2.13;1.00;;;32.50;47.30;;;;;;5024329;28;20045;-45
2022/07/04 10:40:44;;;;;;;1.17;0.88;;;33.10;46.10;;;;;;5033475;28;20284;-45
2022/07/04 10:43:33;;;;;;;3.08;0.90;;;34.20;44.70;;;;;;5019929;28;20100;-45
2022/07/04 10:46:10;;;;;;;1.77;0.97;;;34.70;43.90;;;;;;5030854;28;20021;-45
2022/07/04 10:48:35;;;;;;;2.90;0.80;;;34.90;43.80;;;;;;5029296;28;20125;-44
2022/07/04 10:51:06;;;;;;;2.78;0.93;;;33.80;43.10;;;;;;5028310;28;20099;-45
2022/07/04 10:53:33;;;;;;;2.13;1.08;;;33.30;43.30;;;;;;5024367;28;20025;-46
2022/07/04 10:56:28;;;;;;;9.68;7.95;;;33.30;44.10;;;;;;5032391;28;20394;-46
2022/07/04 10:58:55;;;;;;;1.27;0.80;;;34.50;42.20;;;;;;5012566;28;20029;-47
2022/07/04 11:01:21;;;;;;;3.40;1.00;;;34.90;42.70;;;;;;5025805;28;20097;-47
2022/07/04 11:03:47;;;;;;;2.20;0.80;;;35.40;43.30;;;;;;5035988;28;20029;-48
2022/07/04 11:06:48;;;;;;;1.92;0.77;;;34.90;43.20;;;;;;5031514;28;20075;-47
2022/07/04 11:09:24;;;;;;;3.10;0.68;;;33.80;41.70;;;;;;5044451;28;20518;-47
2022/07/04 11:12:06;;;;;;;1.30;0.90;;;34.00;42.70;;;;;;5031114;28;20043;-47
2022/07/04 11:14:40;;;;;;;1.83;0.85;;;33.40;41.40;;;;;;5031951;28;20029;-46
2022/07/04 11:17:11;;;;;;;2.25;0.70;;;33.50;40.50;;;;;;5034288;28;20020;-47
2022/07/04 11:19:37;;;;;;;2.55;0.90;;;34.20;40.70;;;;;;5040628;28;20017;-46
2022/07/04 11:22:23;;;;;;;1.85;0.73;;;33.40;41.10;;;;;;5045769;28;20029;-47
2022/07/04 11:24:49;;;;;;;4.55;1.02;;;33.70;41.70;;;;;;5010108;28;20034;-46
2022/07/04 11:27:15;;;;;;;1.25;0.80;;;33.30;42.00;;;;;;5007164;28;20698;-46
2022/07/04 11:29:53;;;;;;;3.42;1.00;;;32.40;41.20;;;;;;5025135;28;20030;-46
2022/07/04 11:32:19;;;;;;;1.67;0.60;;;33.40;42.00;;;;;;5033930;28;20099;-47
2022/07/04 11:34:46;;;;;;;1.63;0.90;;;33.30;42.00;;;;;;5045127;28;20153;-47
2022/07/04 11:37:12;;;;;;;0.70;0.70;;;33.70;41.30;;;;;;5043949;28;20232;-47
2022/07/04 11:39:37;;;;;;;4.90;0.70;;;34.10;41.00;;;;;;5050080;28;20345;-47
2022/07/04 11:45:02;;;;;;;2.20;0.80;;;34.00;42.40;;;;;;5039165;28;20033;-47
2022/07/04 11:47:35;;;;;;;2.83;0.70;;;34.00;41.70;;;;;;5039924;28;20121;-49
2022/07/04 11:50:02;;;;;;;3.40;0.90;;;34.40;40.20;;;;;;5039975;28;20075;-46
2022/07/04 11:52:43;;;;;;;1.35;0.70;;;34.80;41.00;;;;;;5031591;28;20026;-49
2022/07/04 11:55:10;;;;;;;2.60;0.80;;;34.30;40.30;;;;;;5030817;28;20165;-47
2022/07/04 11:57:41;;;;;;;0.93;0.70;;;33.90;41.30;;;;;;5037190;28;20017;-49
2022/07/04 12:00:15;;;;;;;3.03;0.80;;;33.80;40.50;;;;;;5045574;28;20040;-48
2022/07/04 12:02:41;;;;;;;0.93;0.50;;;33.30;41.90;;;;;;5045445;28;20534;-47
2022/07/04 12:05:11;;;;;;;1.45;0.60;;;33.40;40.10;;;;;;5039687;28;20056;-46
2022/07/04 12:07:57;;;;;;;0.82;0.75;;;31.90;41.80;;;;;;5034086;28;20033;-49
2022/07/04 12:10:24;;;;;;;1.98;0.63;;;31.80;43.80;;;;;;5038243;28;20037;-46
2022/07/04 12:12:53;;;;;;;1.30;0.70;;;31.60;43.60;;;;;;5033983;28;20037;-46
2022/07/04 12:15:19;;;;;;;1.60;0.88;;;31.50;44.60;;;;;;5036503;28;20091;-46
2022/07/04 12:17:49;;;;;;;0.75;0.63;;;31.50;43.50;;;;;;5040743;28;20032;-46
2022/07/04 12:20:19;;;;;;;2.30;1.30;;;30.50;44.90;;;;;;5039175;28;20021;-45
2022/07/04 12:22:59;;;;;;;1.10;0.68;;;30.40;45.40;;;;;;5046252;28;20060;-46
2022/07/04 12:25:39;;;;;;;3.47;0.80;;;29.80;44.80;;;;;;5038662;28;20083;-46
2022/07/04 12:28:24;;;;;;;0.95;0.50;;;29.20;44.80;;;;;;5040703;28;20021;-47
2022/07/04 12:30:51;;;;;;;0.77;0.60;;;29.20;45.60;;;;;;5041985;28;20029;-49
2022/07/04 12:33:25;;;;;;;2.70;0.70;;;29.30;45.10;;;;;;5032815;28;20075;-45
2022/07/04 12:35:52;;;;;;;3.45;0.70;;;29.80;46.20;;;;;;5041728;28;20026;-46
2022/07/04 12:38:28;;;;;;;2.40;0.70;;;30.30;46.40;;;;;;5035821;28;20036;-45
2022/07/04 12:41:00;;;;;;;2.40;0.50;;;29.80;45.50;;;;;;5038713;28;20034;-47
2022/07/04 12:43:43;;;;;;;1.10;0.60;;;29.60;47.10;;;;;;5033231;28;20025;-45
2022/07/04 12:46:11;;;;;;;2.40;0.73;;;29.90;47.30;;;;;;5030939;28;20055;-46
2022/07/04 12:48:39;;;;;;;2.28;1.20;;;29.70;46.00;;;;;;5040715;28;20249;-48
2022/07/04 12:51:10;;;;;;;1.40;0.75;;;29.40;47.00;;;;;;5039206;28;20018;-45
2022/07/04 12:53:38;;;;;;;2.13;0.50;;;29.40;45.80;;;;;;5031689;28;20029;-46
2022/07/04 12:56:03;;;;;;;0.70;0.60;;;29.30;46.10;;;;;;5035023;28;20021;-48
2022/07/04 12:58:29;;;;;;;2.33;0.73;;;29.60;47.90;;;;;;5041883;28;20486;-45
2022/07/04 13:00:55;;;;;;;3.50;0.60;;;29.20;46.50;;;;;;5042458;28;20018;-46
2022/07/04 13:03:20;;;;;;;3.92;0.77;;;28.70;47.80;;;;;;5044438;28;20120;-48
2022/07/04 13:05:46;;;;;;;2.75;1.35;;;28.40;49.10;;;;;;5039696;28;20029;-46
2022/07/04 13:08:11;;;;;;;0.52;0.52;;;28.30;48.20;;;;;;5030281;28;20036;-46
2022/07/04 13:10:37;;;;;;;3.28;0.60;;;28.30;47.90;;;;;;5031252;28;20104;-46
2022/07/04 13:13:03;;;;;;;2.90;0.88;;;28.70;48.50;;;;;;5042629;28;20028;-47
2022/07/04 13:15:29;;;;;;;1.23;0.85;;;28.40;48.60;;;;;;5044557;28;20429;-46